sensor_id;sensor_type;location;lat;lon;timestamp;pressure;altitude;pressure_sealevel;temperature;humidity
80851;BME280;70268;50.292;6.666;2023-05-21T20:00:08;96245.63;;;20.49;55.33
80851;BME280;70268;50.292;6.666;2023-05-21T20:02:42;96252.72;;;20.49;55.47
80851;BME280;70268;50.292;6.666;2023-05-21T20:05:11;96254.56;;;20.48;55.74
80851;BME280;70268;50.292;6.666;2023-05-21T20:07:41;96262.63;;;20.47;55.74
80851;BME280;70268;50.292;6.666;2023-05-21T20:10:10;96266.25;;;20.46;55.69
80851;BME280;70268;50.292;6.666;2023-05-21T20:12:40;96265.44;;;20.45;55.46
80851;BME280;70268;50.292;6.666;2023-05-21T20:15:09;96270.88;;;20.44;55.65
80851;BME280;70268;50.292;6.666;2023-05-21T20:17:39;96268.25;;;20.44;55.56
80851;BME280;70268;50.292;6.666;2023-05-21T20:20:12;96271.91;;;20.42;55.77
80851;BME280;70268;50.292;6.666;2023-05-21T20:22:42;96272.91;;;20.41;55.82
80851;BME280;70268;50.292;6.666;2023-05-21T20:25:12;96269.84;;;20.38;55.95
80851;BME280;70268;50.292;6.666;2023-05-21T20:27:41;96271.66;;;20.37;55.68
80851;BME280;70268;50.292;6.666;2023-05-21T20:30:10;96274.47;;;20.36;55.63
80851;BME280;70268;50.292;6.666;2023-05-21T20:32:39;96277.09;;;20.36;55.87
80851;BME280;70268;50.292;6.666;2023-05-21T20:35:08;96278.94;;;20.35;55.53
80851;BME280;70268;50.292;6.666;2023-05-21T20:37:39;96281.75;;;20.34;55.94
80851;BME280;70268;50.292;6.666;2023-05-21T20:40:09;96280.75;;;20.35;55.63
80851;BME280;70268;50.292;6.666;2023-05-21T20:42:40;96277.69;;;20.31;55.67
80851;BME280;70268;50.292;6.666;2023-05-21T20:45:11;96277.69;;;20.31;55.63
80851;BME280;70268;50.292;6.666;2023-05-21T20:47:42;96285.56;;;20.31;55.41
80851;BME280;70268;50.292;6.666;2023-05-21T20:50:11;96278.53;;;20.32;55.65
80851;BME280;70268;50.292;6.666;2023-05-21T20:52:41;96280.50;;;20.30;55.79
80851;BME280;70268;50.292;6.666;2023-05-21T20:55:13;96281.53;;;20.29;55.93
80851;BME280;70268;50.292;6.666;2023-05-21T20:57:42;96279.09;;;20.27;55.75
80851;BME280;70268;50.292;6.666;2023-05-21T21:00:12;96278.06;;;20.28;55.95
80851;BME280;70268;50.292;6.666;2023-05-21T21:02:42;96279.91;;;20.28;55.57
80851;BME280;70268;50.292;6.666;2023-05-21T21:05:11;96286.16;;;20.27;56.00
80851;BME280;70268;50.292;6.666;2023-05-21T21:07:42;96279.28;;;20.26;55.84
80851;BME280;70268;50.292;6.666;2023-05-21T21:10:12;96276.84;;;20.24;55.76
80851;BME280;70268;50.292;6.666;2023-05-21T21:12:41;96279.66;;;20.22;55.80
80851;BME280;70268;50.292;6.666;2023-05-21T21:15:09;96277.84;;;20.23;55.71
80851;BME280;70268;50.292;6.666;2023-05-21T21:17:40;96281.47;;;20.22;55.77
80851;BME280;70268;50.292;6.666;2023-05-21T21:20:10;96278.22;;;20.20;56.05
80851;BME280;70268;50.292;6.666;2023-05-21T21:22:41;96272.97;;;20.20;55.92
80851;BME280;70268;50.292;6.666;2023-05-21T21:25:12;96273.97;;;20.19;55.71
80851;BME280;70268;50.292;6.666;2023-05-21T21:27:41;96275.78;;;20.18;56.04
80851;BME280;70268;50.292;6.666;2023-05-21T21:30:10;96282.03;;;20.17;56.05
80851;BME280;70268;50.292;6.666;2023-05-21T21:32:39;96277.81;;;20.16;55.56
80851;BME280;70268;50.292;6.666;2023-05-21T21:35:08;96272.53;;;20.16;55.95
80851;BME280;70268;50.292;6.666;2023-05-21T21:37:37;96267.47;;;20.15;56.06
80851;BME280;70268;50.292;6.666;2023-05-21T21:40:08;96276.34;;;20.14;55.96
80851;BME280;70268;50.292;6.666;2023-05-21T21:42:37;96270.25;;;20.13;56.15
80851;BME280;70268;50.292;6.666;2023-05-21T21:45:07;96274.53;;;20.14;56.20
80851;BME280;70268;50.292;6.666;2023-05-21T21:47:36;96274.72;;;20.13;55.93
80851;BME280;70268;50.292;6.666;2023-05-21T21:50:06;96270.47;;;20.12;55.83
80851;BME280;70268;50.292;6.666;2023-05-21T21:52:36;96262.75;;;20.10;56.00
80851;BME280;70268;50.292;6.666;2023-05-21T21:55:09;96264.59;;;20.10;56.10
80851;BME280;70268;50.292;6.666;2023-05-21T21:57:37;96261.16;;;20.09;56.03
80851;BME280;70268;50.292;6.666;2023-05-21T22:00:08;96264.78;;;20.08;56.19
80851;BME280;70268;50.292;6.666;2023-05-21T22:02:42;96262.16;;;20.08;55.88
80851;BME280;70268;50.292;6.666;2023-05-21T22:05:13;96265.78;;;20.07;55.94
80851;BME280;70268;50.292;6.666;2023-05-21T22:07:42;96261.53;;;20.06;56.22
80851;BME280;70268;50.292;6.666;2023-05-21T22:10:15;96263.53;;;20.04;55.70
80851;BME280;70268;50.292;6.666;2023-05-21T22:12:44;96262.38;;;20.13;57.36
80851;BME280;70268;50.292;6.666;2023-05-21T22:15:17;96258.06;;;20.05;56.03
80851;BME280;70268;50.292;6.666;2023-05-21T22:17:47;96252.41;;;20.02;56.32
80851;BME280;70268;50.292;6.666;2023-05-21T22:20:16;96247.50;;;19.99;56.12
80851;BME280;70268;50.292;6.666;2023-05-21T22:22:45;96253.38;;;20.01;55.86
80851;BME280;70268;50.292;6.666;2023-05-21T22:25:16;96254.41;;;20.00;55.89
80851;BME280;70268;50.292;6.666;2023-05-21T22:27:44;96250.94;;;19.99;56.25
80851;BME280;70268;50.292;6.666;2023-05-21T22:30:13;96248.31;;;19.99;56.36
80851;BME280;70268;50.292;6.666;2023-05-21T22:32:41;96249.34;;;19.98;56.24
80851;BME280;70268;50.292;6.666;2023-05-21T22:35:10;96255.59;;;19.97;56.15
80851;BME280;70268;50.292;6.666;2023-05-21T22:37:39;96242.25;;;19.99;55.99
80851;BME280;70268;50.292;6.666;2023-05-21T22:40:08;96252.78;;;19.99;56.37
80851;BME280;70268;50.292;6.666;2023-05-21T22:42:38;96249.53;;;19.97;56.40
80851;BME280;70268;50.292;6.666;2023-05-21T22:45:08;96253.34;;;19.94;56.59
80851;BME280;70268;50.292;6.666;2023-05-21T22:47:37;96248.28;;;19.93;56.63
80851;BME280;70268;50.292;6.666;2023-05-21T22:50:06;96245.03;;;19.91;56.48
80851;BME280;70268;50.292;6.666;2023-05-21T22:52:36;96247.84;;;19.89;56.55
80851;BME280;70268;50.292;6.666;2023-05-21T22:55:05;96253.91;;;19.90;56.89
80851;BME280;70268;50.292;6.666;2023-05-21T22:57:40;96249.84;;;19.87;57.21
80851;BME280;70268;50.292;6.666;2023-05-21T23:00:09;96253.69;;;19.84;57.05
80851;BME280;70268;50.292;6.666;2023-05-21T23:02:38;96253.03;;;19.82;57.31
80851;BME280;70268;50.292;6.666;2023-05-21T23:05:07;96258.47;;;19.81;57.40
80851;BME280;70268;50.292;6.666;2023-05-21T23:07:36;96258.66;;;19.79;57.29
80851;BME280;70268;50.292;6.666;2023-05-21T23:10:05;96252.81;;;19.77;57.63
80851;BME280;70268;50.292;6.666;2023-05-21T23:12:35;96257.19;;;19.77;57.28
80851;BME280;70268;50.292;6.666;2023-05-21T23:15:06;96257.19;;;19.77;57.38
80851;BME280;70268;50.292;6.666;2023-05-21T23:17:36;96255.78;;;19.74;57.70
80851;BME280;70268;50.292;6.666;2023-05-21T23:20:06;96262.81;;;19.74;57.81
80851;BME280;70268;50.292;6.666;2023-05-21T23:22:35;96257.75;;;19.72;57.75
80851;BME280;70268;50.292;6.666;2023-05-21T23:25:04;96254.31;;;19.71;58.07
80851;BME280;70268;50.292;6.666;2023-05-21T23:27:33;96260.56;;;19.70;57.85
80851;BME280;70268;50.292;6.666;2023-05-21T23:30:02;96256.16;;;19.71;58.11
80851;BME280;70268;50.292;6.666;2023-05-21T23:32:32;96261.59;;;19.69;58.44
80851;BME280;70268;50.292;6.666;2023-05-21T23:35:00;96256.34;;;19.69;57.78
80851;BME280;70268;50.292;6.666;2023-05-21T23:37:29;96251.09;;;19.69;58.41
80851;BME280;70268;50.292;6.666;2023-05-21T23:39:57;96262.59;;;19.68;57.78
80851;BME280;70268;50.292;6.666;2023-05-21T23:42:26;96253.91;;;19.68;58.02
80851;BME280;70268;50.292;6.666;2023-05-21T23:44:54;96262.59;;;19.68;58.46
80851;BME280;70268;50.292;6.666;2023-05-21T23:47:23;96253.06;;;19.67;58.17
80851;BME280;70268;50.292;6.666;2023-05-21T23:49:53;96253.25;;;19.66;57.87
80851;BME280;70268;50.292;6.666;2023-05-21T23:52:21;96249.81;;;19.65;58.06
80851;BME280;70268;50.292;6.666;2023-05-21T23:54:50;96241.94;;;19.65;58.09
80851;BME280;70268;50.292;6.666;2023-05-21T23:57:19;96248.56;;;19.61;58.88
80851;BME280;70268;50.292;6.666;2023-05-21T23:59:47;96246.31;;;19.58;58.72
